Impacts TAF Board INFO
FOR SITUATIONAL AWARENESS. NOT TO BE USED FOR FLIGHT PLANNING PURPOSES.
IDs:

KDFW - Dallas-Ft Worth Intl, TX, US

Issued at 2338 UTC 19 Feb 2018
Updated at 0138 UTC 20 Feb 2018
Potential Impact None Slight Moderate High
Time<<21/02Z 21/03Z 21/04Z 21/05Z 21/06Z 21/07Z 21/08Z 21/09Z 21/10Z 21/11Z 21/12Z 21/13Z 21/14Z
Type PRVL PRVL PRVL PRVL
VIS 6 6 6 6
CIG 25 25 25 25
Cover OVC OVC OVC OVC
FltCat MVFR MVFR MVFR MVFR
WX SHRA VCTS SHRA VCTS SHRA VCTS SHRA VCTS
WDir 170 170 170 170
WSpd 15 15 15 15
WGst 25 25 25 25

Raw TAF
KDFW 192338Z 2000/2106 17013G23KT P6SM VCSH SCT040 OVC050
  FM200300 17017KT P6SM OVC025
  FM200600 17015G25KT P6SM VCSH OVC018
  FM200800 18014G24KT P6SM VCTS OVC015CB
  TEMPO 2009/2013 4SM TSRA BKN020 OVC050CB
  FM201400 18016KT P6SM VCSH OVC020
  FM201700 17015G25KT 6SM SHRA VCTS OVC025CB


METAR Board
Radar Display
Forecast Discussion

FOR SITUATIONAL AWARENESS. NOT TO BE USED FOR FLIGHT PLANNING PURPOSES.